createdAt,value
2018-03-31T00:01:48.976Z,2.6
2018-03-31T00:03:49.674Z,2.62
2018-03-31T00:07:50.364Z,2.2
2018-03-31T00:13:51.091Z,2.63
2018-03-31T00:17:51.899Z,2.39
2018-03-31T00:23:52.610Z,2.44
2018-03-31T00:27:53.516Z,2.03
2018-03-31T00:29:54.336Z,2.25
2018-03-31T00:33:55.088Z,2.19
2018-03-31T00:39:55.834Z,2.45
2018-03-31T00:43:56.561Z,2.35
2018-03-31T00:49:57.418Z,2.31
2018-03-31T00:53:58.142Z,2.08
2018-03-31T00:55:58.835Z,2.48
2018-03-31T00:59:59.475Z,2.24
2018-03-31T01:06:00.224Z,2.28
2018-03-31T01:10:00.933Z,2.07
2018-03-31T01:16:01.748Z,2.37
2018-03-31T01:20:02.587Z,1.77
2018-03-31T01:22:03.144Z,2.3
2018-03-31T01:26:03.859Z,1.81
2018-03-31T01:32:04.684Z,2.15
2018-03-31T01:36:05.383Z,2.03
2018-03-31T01:42:06.108Z,1.68
2018-03-31T01:46:07.084Z,2.03
2018-03-31T01:48:07.718Z,2.25
2018-03-31T01:52:08.424Z,2.29
2018-03-31T01:58:09.271Z,2.71
2018-03-31T02:02:10.035Z,1.81
2018-03-31T02:08:10.710Z,2.21
2018-03-31T02:12:11.456Z,1.83
2018-03-31T02:14:12.156Z,2.15
2018-03-31T02:18:12.911Z,2.16
2018-03-31T02:24:13.647Z,2.03
2018-03-31T02:28:14.465Z,1.85
2018-03-31T02:34:15.158Z,2.48
2018-03-31T02:38:15.937Z,2.61
2018-03-31T02:40:16.677Z,1.86
2018-03-31T02:44:17.469Z,1.8
2018-03-31T02:50:18.091Z,2.09
2018-03-31T02:54:18.827Z,2.19
2018-03-31T03:00:20.014Z,2.34
2018-03-31T03:04:20.770Z,2.06
2018-03-31T03:06:21.532Z,2.28
2018-03-31T03:10:22.361Z,2.1
2018-03-31T03:16:23.094Z,2.5
2018-03-31T03:20:23.750Z,2.19
2018-03-31T03:26:24.568Z,2.74
2018-03-31T03:30:25.692Z,2.59
2018-03-31T03:32:26.485Z,2.6
2018-03-31T03:36:27.202Z,2.73
2018-03-31T03:42:27.964Z,3.17
2018-03-31T03:46:28.720Z,3.03
2018-03-31T03:52:29.414Z,3.88
2018-03-31T03:56:30.122Z,3.66
2018-03-31T03:58:30.884Z,3.98
2018-03-31T04:02:31.601Z,4.02
2018-03-31T04:08:32.380Z,4.25
2018-03-31T04:12:33.055Z,3.95
2018-03-31T04:18:33.857Z,4.06
2018-03-31T04:24:34.610Z,4.69
2018-03-31T04:28:35.389Z,4.91
2018-03-31T04:34:36.230Z,4.53
2018-03-31T04:38:36.887Z,4.82
2018-03-31T04:44:37.840Z,5.42
2018-03-31T04:50:38.764Z,5.45
2018-03-31T04:54:39.573Z,4.65
2018-03-31T05:00:40.326Z,5.19
2018-03-31T05:04:41.127Z,4.96
2018-03-31T05:10:41.972Z,5.68
2018-03-31T05:16:42.743Z,5.79
2018-03-31T05:20:43.498Z,4.71
2018-03-31T05:26:44.253Z,5.52
2018-03-31T05:30:45.039Z,5.45
2018-03-31T05:36:45.895Z,4.8
2018-03-31T05:42:46.762Z,5.23
2018-03-31T05:46:47.562Z,5.23
2018-03-31T05:52:48.532Z,5.96
2018-03-31T05:56:49.259Z,5.83
2018-03-31T06:02:49.988Z,5.82
2018-03-31T06:08:50.801Z,6.59
2018-03-31T06:12:51.562Z,6.36
2018-03-31T06:18:52.328Z,3.46
2018-03-31T06:22:53.097Z,3.46
2018-03-31T06:28:53.773Z,4.04
2018-03-31T06:34:54.592Z,4.3
2018-03-31T06:38:55.339Z,3.6
2018-03-31T06:44:56.151Z,4.23
2018-03-31T06:48:56.912Z,6.48
2018-03-31T06:54:57.680Z,4.57
2018-03-31T07:00:58.469Z,4.9
2018-03-31T07:04:59.236Z,4.79
2018-03-31T07:11:00.101Z,4.97
2018-03-31T07:15:00.919Z,5.28
2018-03-31T07:21:01.686Z,5.27
2018-03-31T07:27:02.515Z,4.41
2018-03-31T07:31:03.401Z,4.5
2018-03-31T07:37:04.202Z,5.36
2018-03-31T07:41:04.912Z,5.01
2018-03-31T07:47:05.720Z,5.56
2018-03-31T07:53:06.502Z,5.8
2018-03-31T07:57:07.214Z,6.04
2018-03-31T08:03:08.277Z,4.33
2018-03-31T08:07:08.997Z,2.78
2018-03-31T08:13:10.021Z,1.82
2018-03-31T08:19:10.996Z,2.9
2018-03-31T08:23:11.711Z,2.55
2018-03-31T08:29:12.457Z,2.06
2018-03-31T08:33:13.374Z,1.97
2018-03-31T08:39:14.222Z,1.64
2018-03-31T08:45:15.441Z,2.11
2018-03-31T08:49:16.288Z,1.83
2018-03-31T08:55:16.999Z,2.75
2018-03-31T08:59:17.819Z,2.33
2018-03-31T09:05:18.562Z,3.43
2018-03-31T09:11:19.349Z,3.3
2018-03-31T09:15:20.716Z,2.75
2018-03-31T09:21:21.748Z,2.53
2018-03-31T09:25:22.554Z,2.15
2018-03-31T09:31:23.269Z,2.02
2018-03-31T09:37:24.131Z,2.33
2018-03-31T09:41:24.788Z,2.3
2018-03-31T09:51:28.240Z,2.03
2018-03-31T09:51:28.368Z,2.2
2018-03-31T09:57:29.126Z,2.39
2018-03-31T10:03:29.892Z,2.76
2018-03-31T10:07:30.638Z,2.61
2018-03-31T10:13:31.485Z,2.97
2018-03-31T10:17:32.297Z,3.21
2018-03-31T10:23:33.012Z,2.93
2018-03-31T10:29:33.817Z,3.43
2018-03-31T10:33:34.650Z,3.41
2018-03-31T10:39:35.486Z,3.2
2018-03-31T10:43:36.172Z,3
2018-03-31T10:49:37.233Z,3
2018-03-31T10:55:38.042Z,3.64
2018-03-31T10:59:38.839Z,3.38
2018-03-31T11:05:39.688Z,3.2
2018-03-31T11:09:40.487Z,2.53
2018-03-31T11:15:41.284Z,2.78
2018-03-31T11:21:41.994Z,3.74
2018-03-31T11:25:42.768Z,3.78
2018-03-31T11:31:43.596Z,3.27
2018-03-31T11:35:44.306Z,2.67
2018-03-31T11:37:45.027Z,2.54
2018-03-31T11:41:45.806Z,2.75
2018-03-31T11:47:46.576Z,1.53
2018-03-31T11:51:47.396Z,1.6
2018-03-31T11:57:48.274Z,1.6
2018-03-31T12:01:49.083Z,1.28
2018-03-31T12:03:49.823Z,1.6
2018-03-31T12:07:50.499Z,1.4
2018-03-31T12:13:51.247Z,1.79
2018-03-31T12:17:52.013Z,1.29
2018-03-31T12:23:52.899Z,1.27
2018-03-31T12:27:53.634Z,1.1
2018-03-31T12:29:54.511Z,1
2018-03-31T12:33:55.208Z,1.26
2018-03-31T12:39:56.079Z,1.21
2018-03-31T12:43:57.424Z,1.08
2018-03-31T12:49:58.321Z,1.56
2018-03-31T12:53:59.027Z,1.45
2018-03-31T12:55:59.797Z,1.49
2018-03-31T13:00:00.482Z,1.24
2018-03-31T13:06:01.266Z,1.15
2018-03-31T13:10:02.026Z,1.18
2018-03-31T13:16:02.901Z,1.66
2018-03-31T13:20:04.036Z,1.4
2018-03-31T13:22:04.776Z,1.22
2018-03-31T13:26:05.639Z,1.25
2018-03-31T13:32:06.440Z,1.23
2018-03-31T13:36:07.249Z,1.11
2018-03-31T13:42:08.049Z,1.64
2018-03-31T13:46:08.844Z,1.24
2018-03-31T13:48:09.540Z,1.04
2018-03-31T13:52:10.474Z,1.11
2018-03-31T13:58:10.967Z,1.87
2018-03-31T14:02:11.678Z,1.5
2018-03-31T14:08:12.480Z,1.09
2018-03-31T14:12:13.208Z,0.86
2018-03-31T14:14:13.928Z,0.94
2018-03-31T14:18:14.744Z,1.06
2018-03-31T14:24:15.550Z,1.29
2018-03-31T14:28:16.382Z,0.89
2018-03-31T14:34:17.066Z,1.52
2018-03-31T14:38:17.867Z,1.13
2018-03-31T14:40:18.610Z,1.37
2018-03-31T14:44:19.418Z,1.34
2018-03-31T14:50:20.217Z,1.54
2018-03-31T14:54:21.066Z,1.31
2018-03-31T15:00:22.204Z,1.29
2018-03-31T15:04:22.951Z,0.86
2018-03-31T15:06:23.792Z,1.22
2018-03-31T15:10:24.559Z,0.93
2018-03-31T15:16:25.324Z,1.18
2018-03-31T15:20:26.232Z,1.04
2018-03-31T15:26:26.975Z,1.17
2018-03-31T15:30:28.210Z,0.83
2018-03-31T15:32:28.988Z,1.16
2018-03-31T15:36:29.858Z,1.37
2018-03-31T15:42:30.710Z,1.11
2018-03-31T15:46:31.422Z,1.3
2018-03-31T15:52:32.117Z,1.04
2018-03-31T15:56:32.863Z,1.09
2018-03-31T15:58:33.671Z,1.77
2018-03-31T16:02:34.481Z,1.21
2018-03-31T16:08:35.229Z,1.76
2018-03-31T16:12:35.978Z,1.26
2018-03-31T16:18:36.679Z,1.7
2018-03-31T16:22:37.458Z,1.53
2018-03-31T16:24:38.160Z,1.48
2018-03-31T16:28:38.908Z,1.31
2018-03-31T16:34:39.745Z,2
2018-03-31T16:38:40.391Z,1.83
2018-03-31T16:44:41.140Z,1.48
2018-03-31T16:48:41.938Z,1.75
2018-03-31T16:50:42.938Z,3.35
2018-03-31T16:54:43.630Z,3.16
2018-03-31T17:00:44.477Z,1.68
2018-03-31T17:04:45.260Z,1.98
2018-03-31T17:10:45.960Z,2.02
2018-03-31T17:14:46.738Z,1.84
2018-03-31T17:16:47.838Z,2.41
2018-03-31T17:20:48.633Z,2.14
2018-03-31T17:26:49.380Z,2.42
2018-03-31T17:30:50.120Z,2.32
2018-03-31T17:36:51.026Z,2.8
2018-03-31T17:40:51.721Z,3.55
2018-03-31T17:42:52.673Z,2.75
2018-03-31T17:46:53.567Z,2.43
2018-03-31T17:52:54.389Z,3.71
2018-03-31T17:56:55.138Z,3.86
2018-03-31T18:02:56.015Z,2.37
2018-03-31T18:06:56.749Z,2.15
2018-03-31T18:08:57.802Z,1.96
2018-03-31T18:12:58.593Z,1.79
2018-03-31T18:18:59.574Z,2.58
2018-03-31T18:23:00.524Z,2.18
2018-03-31T18:29:01.379Z,2.16
2018-03-31T18:33:02.385Z,1.81
2018-03-31T18:35:02.989Z,2.5
2018-03-31T18:39:03.921Z,2.01
2018-03-31T18:45:04.674Z,2.46
2018-03-31T18:49:05.504Z,2.3
2018-03-31T18:55:06.327Z,3.45
2018-03-31T18:59:07.250Z,3.01
2018-03-31T19:01:08.075Z,3.36
2018-03-31T19:05:08.923Z,3.29
2018-03-31T19:11:10.010Z,3.85
2018-03-31T19:15:11.111Z,3.83
2018-03-31T19:21:11.996Z,5.16
2018-03-31T19:25:12.799Z,4.14
2018-03-31T19:27:13.539Z,5.26
2018-03-31T19:31:14.408Z,4.33
2018-03-31T19:37:15.309Z,5.59
2018-03-31T19:41:16.065Z,4.48
2018-03-31T19:47:16.886Z,5.87
2018-03-31T19:51:17.803Z,4.53
2018-03-31T19:53:18.690Z,5.07
2018-03-31T19:57:19.554Z,5.59
2018-03-31T20:03:20.422Z,4.19
2018-03-31T20:07:21.184Z,4.29
2018-03-31T20:13:21.979Z,5.46
2018-03-31T20:17:22.772Z,5.43
2018-03-31T20:19:23.464Z,3.09
2018-03-31T20:23:30.059Z,3.02
2018-03-31T20:29:30.762Z,3.3
2018-03-31T20:33:31.850Z,2.67
2018-03-31T20:39:32.849Z,2.01
2018-03-31T20:43:33.630Z,2.44
2018-03-31T20:49:34.461Z,2.66
2018-03-31T20:55:35.227Z,2.2
2018-03-31T20:59:36.201Z,1.96
2018-03-31T21:05:36.990Z,2.72
2018-03-31T21:09:38.172Z,2.6
2018-03-31T21:15:38.874Z,1.9
2018-03-31T21:21:39.586Z,1.73
2018-03-31T21:25:40.347Z,1.85
2018-03-31T21:31:41.300Z,2.06
2018-03-31T21:35:42.251Z,1.69
2018-03-31T21:41:42.855Z,1.96
2018-03-31T21:47:43.883Z,1.97
2018-03-31T21:51:44.695Z,1.55
2018-03-31T21:57:45.545Z,1.75
2018-03-31T22:01:46.424Z,1.71
2018-03-31T22:07:47.235Z,1.49
2018-03-31T22:13:48.100Z,1.41
2018-03-31T22:17:48.888Z,1.72
2018-03-31T22:23:49.827Z,1.57
2018-03-31T22:27:50.569Z,1.27
2018-03-31T22:33:51.330Z,1.15
2018-03-31T22:39:52.072Z,1.34
2018-03-31T22:43:52.813Z,1.3
2018-03-31T22:49:53.586Z,1.33
2018-03-31T22:53:54.415Z,1.34
2018-03-31T22:55:55.188Z,1.72
2018-03-31T22:59:55.970Z,1.28
2018-03-31T23:05:57.303Z,1.8
2018-03-31T23:09:58.646Z,2.1
2018-03-31T23:16:00.009Z,1.73
2018-03-31T23:20:01.303Z,1.83
2018-03-31T23:26:02.665Z,1.52
2018-03-31T23:32:04.113Z,1.6
2018-03-31T23:36:05.464Z,1.41
2018-03-31T23:42:07.148Z,1.75
2018-03-31T23:46:08.503Z,1.63
2018-03-31T23:52:09.881Z,1.7
2018-03-31T23:58:11.308Z,2.41
